Time;durP1;ratioP1;P1;durP2;ratioP2;P2;SDS_P1;SDS_P2;PMS_P1;PMS_P2;Temp;Humidity;BMP_temperature;BMP_pressure;BME280_temperature;BME280_humidity;BME280_pressure;Samples;Min_cycle;Max_cycle;Signal;HPM_P1;HPM_P2
2022/12/17 13:08:07;;;;;;;23.00;13.90;;;;;;;-142.25;100.00;58004.16;4948266;28;20101;-75
2022/12/17 13:10:35;;;;;;;26.70;13.38;;;;;;;-142.25;100.00;58004.16;4946103;28;20149;-77
2022/12/17 13:13:34;;;;;;;26.23;12.77;;;;;;;-142.25;100.00;58004.16;4959612;28;20077;-78
2022/12/17 13:16:29;;;;;;;20.30;11.10;;;;;;;-142.25;100.00;58004.16;4956812;28;20047;-77
2022/12/17 13:19:19;;;;;;;23.83;13.37;;;;;;;-142.25;100.00;58004.16;4945193;28;20047;-74
2022/12/17 13:21:44;;;;;;;24.00;11.13;;;;;;;-142.25;100.00;58004.16;4960200;28;20042;-75
2022/12/17 13:24:12;;;;;;;26.17;12.30;;;;;;;-142.25;100.00;58004.16;4974075;28;20057;-74
2022/12/17 13:26:44;;;;;;;25.70;13.47;;;;;;;-142.25;100.00;58004.16;4963985;28;20038;-76
2022/12/17 13:29:34;;;;;;;26.20;13.07;;;;;;;-142.25;100.00;58004.16;4961748;28;20047;-76
2022/12/17 13:32:00;;;;;;;25.33;14.07;;;;;;;-142.25;100.00;58004.16;4962783;28;20113;-75
2022/12/17 13:34:40;;;;;;;22.10;12.30;;;;;;;-142.25;100.00;58004.16;4959694;28;20965;-75
2022/12/17 13:37:19;;;;;;;22.57;11.93;;;;;;;-142.25;100.00;58004.16;4960065;28;20125;-73
2022/12/17 13:40:11;;;;;;;24.80;13.23;;;;;;;-142.25;100.00;58004.16;4961486;28;20573;-74
2022/12/17 13:42:37;;;;;;;19.87;11.73;;;;;;;-142.25;100.00;58004.16;4950646;28;20739;-71
2022/12/17 13:45:03;;;;;;;28.00;11.70;;;;;;;-142.25;100.00;58004.16;4958944;28;20054;-72
2022/12/17 13:47:34;;;;;;;23.50;12.77;;;;;;;-142.25;100.00;58004.16;4959913;28;20125;-70
2022/12/17 13:50:02;;;;;;;24.17;13.33;;;;;;;-142.25;100.00;58004.16;4958877;28;20064;-69
2022/12/17 13:52:29;;;;;;;23.33;12.63;;;;;;;-142.25;100.00;58004.16;4959247;28;20038;-69
2022/12/17 13:55:07;;;;;;;22.90;13.20;;;;;;;-142.25;100.00;58004.16;4959571;28;20057;-67
2022/12/17 13:57:36;;;;;;;28.57;15.30;;;;;;;-142.25;100.00;58004.16;4960074;28;20090;-69
2022/12/17 14:00:03;;;;;;;25.53;13.73;;;;;;;-142.25;100.00;58004.16;4955422;28;20138;-72
2022/12/17 14:02:38;;;;;;;21.90;13.10;;;;;;;-142.25;100.00;58004.16;4958471;28;20093;-70
2022/12/17 14:05:06;;;;;;;25.97;12.10;;;;;;;-142.25;100.00;58004.16;4963889;28;20499;-71
2022/12/17 14:07:37;;;;;;;19.07;11.13;;;;;;;-142.25;100.00;58004.16;4957114;28;20710;-71
2022/12/17 14:10:04;;;;;;;24.53;12.63;;;;;;;-142.25;100.00;58004.16;4959642;28;20050;-71
2022/12/17 14:12:34;;;;;;;23.73;12.20;;;;;;;-142.25;100.00;58004.16;4959906;28;20075;-71
2022/12/17 14:15:09;;;;;;;24.87;12.23;;;;;;;-142.25;100.00;58004.16;4956307;28;20102;-71
2022/12/17 14:17:40;;;;;;;23.48;12.10;;;;;;;-142.25;100.00;58004.16;4972900;28;20770;-69
2022/12/17 14:20:09;;;;;;;24.77;12.93;;;;;;;-142.25;100.00;58004.16;4961751;28;20048;-70
2022/12/17 14:22:45;;;;;;;21.73;10.33;;;;;;;-142.25;100.00;58004.16;4956659;28;20615;-71
2022/12/17 14:25:18;;;;;;;22.03;11.73;;;;;;;-142.25;100.00;58004.16;4963183;28;20516;-70
2022/12/17 14:28:15;;;;;;;22.20;12.53;;;;;;;-142.25;100.00;58004.16;4976239;28;20157;-70
2022/12/17 14:30:42;;;;;;;24.53;13.17;;;;;;;-142.25;100.00;58004.16;4959269;28;20145;-69
2022/12/17 14:33:26;;;;;;;24.37;12.93;;;;;;;-142.25;100.00;58004.16;4975069;28;20047;-69
2022/12/17 14:35:58;;;;;;;20.10;9.85;;;;;;;-142.25;100.00;58004.16;4960518;28;20050;-72
2022/12/17 14:38:25;;;;;;;22.97;11.90;;;;;;;-142.25;100.00;58004.16;4960682;28;20142;-70
2022/12/17 14:40:52;;;;;;;22.73;12.20;;;;;;;-142.25;100.00;58004.16;4956728;28;20035;-71
2022/12/17 14:43:25;;;;;;;20.13;11.67;;;;;;;-142.25;100.00;58004.16;4961584;28;20065;-69
2022/12/17 14:49:01;;;;;;;26.37;13.93;;;;;;;-142.25;100.00;58004.16;4961529;28;20047;-71
2022/12/17 14:51:33;;;;;;;25.83;13.57;;;;;;;-142.25;100.00;58004.16;4961530;28;20058;-71
2022/12/17 14:54:24;;;;;;;25.20;14.23;;;;;;;-142.25;100.00;58004.16;4961865;28;20058;-73
2022/12/17 14:56:53;;;;;;;19.23;10.10;;;;;;;-142.25;100.00;58004.16;4968380;28;20042;-74
2022/12/17 14:59:32;;;;;;;26.77;12.47;;;;;;;-142.25;100.00;58004.16;4962736;28;20105;-73
2022/12/17 15:02:25;;;;;;;24.00;13.43;;;;;;;-142.25;100.00;58004.16;4963780;28;20110;-72
2022/12/17 15:04:57;;;;;;;23.10;12.40;;;;;;;-142.25;100.00;58004.16;4960545;28;20039;-72
2022/12/17 15:07:29;;;;;;;27.77;13.33;;;;;;;-142.25;100.00;58004.16;4961022;28;20050;-72
2022/12/17 15:09:55;;;;;;;24.47;13.90;;;;;;;-142.25;100.00;58004.16;4964935;28;20046;-72
2022/12/17 15:12:23;;;;;;;25.03;12.70;;;;;;;-142.25;100.00;58004.16;4963379;28;20747;-71
2022/12/17 15:14:49;;;;;;;24.00;14.13;;;;;;;-142.25;100.00;58004.16;4965147;28;20477;-72
2022/12/17 15:17:15;;;;;;;24.27;12.03;;;;;;;-142.25;100.00;58004.16;4971614;28;20087;-73
2022/12/17 15:19:41;;;;;;;26.40;13.47;;;;;;;-142.25;100.00;58004.16;4964798;28;20051;-70
2022/12/17 15:22:15;;;;;;;27.10;14.47;;;;;;;-142.25;100.00;58004.16;4966161;28;20050;-71
2022/12/17 15:24:43;;;;;;;24.03;13.57;;;;;;;-142.25;100.00;58004.16;4965185;28;20047;-72
2022/12/17 15:27:16;;;;;;;28.50;13.50;;;;;;;-142.25;100.00;58004.16;4965907;28;20219;-71
2022/12/17 15:29:42;;;;;;;27.10;14.17;;;;;;;-142.25;100.00;58004.16;4964240;28;20128;-71
2022/12/17 15:32:19;;;;;;;27.37;13.97;;;;;;;-142.25;100.00;58004.16;4966415;28;20681;-72
2022/12/17 15:34:45;;;;;;;25.57;13.17;;;;;;;-142.25;100.00;58004.16;4965383;28;20055;-70
2022/12/17 15:37:12;;;;;;;23.23;13.10;;;;;;;-142.25;100.00;58004.16;4964602;28;20058;-70
2022/12/17 15:39:38;;;;;;;28.33;13.67;;;;;;;-142.25;100.00;58004.16;4967597;28;20063;-69
2022/12/17 15:44:48;;;;;;;24.80;12.15;;;;;;;-142.25;100.00;58004.16;4965835;28;20051;-69
2022/12/17 15:47:14;;;;;;;27.30;13.67;;;;;;;-142.25;100.00;58004.16;4968259;28;20102;-70
2022/12/17 15:49:40;;;;;;;27.23;13.57;;;;;;;-142.25;100.00;58004.16;4968722;28;20045;-74
2022/12/17 15:52:05;;;;;;;24.77;13.17;;;;;;;-142.25;100.00;58004.16;4967442;28;20516;-70
2022/12/17 15:54:31;;;;;;;26.97;14.20;;;;;;;-142.25;100.00;58004.16;4967173;28;20051;-59
2022/12/17 15:56:57;;;;;;;26.33;13.93;;;;;;;-142.25;100.00;58004.16;4960932;28;20892;-75
2022/12/17 15:59:23;;;;;;;31.90;16.03;;;;;;;-142.25;100.00;58004.16;4960793;28;20511;-71
2022/12/17 16:01:49;;;;;;;24.67;13.23;;;;;;;-142.25;100.00;58004.16;4949934;28;20126;-71
2022/12/17 16:04:16;;;;;;;29.70;15.10;;;;;;;-142.25;100.00;58004.16;4963901;28;20054;-69
2022/12/17 16:06:41;;;;;;;23.93;15.07;;;;;;;-142.25;100.00;58004.16;4963638;28;20046;-71
2022/12/17 16:09:07;;;;;;;26.90;14.90;;;;;;;-142.25;100.00;58004.16;4963736;28;20077;-71
2022/12/17 16:11:33;;;;;;;31.27;15.10;;;;;;;-142.25;100.00;58004.16;4964361;28;20527;-72
2022/12/17 16:13:59;;;;;;;31.80;16.50;;;;;;;-142.25;100.00;58004.16;4963642;28;20165;-74
2022/12/17 16:16:25;;;;;;;30.23;16.00;;;;;;;-142.25;100.00;58004.16;4964954;28;20046;-74
2022/12/17 16:18:51;;;;;;;32.37;15.93;;;;;;;-142.25;100.00;58004.16;4961808;28;20157;-72
2022/12/17 16:21:17;;;;;;;32.67;17.13;;;;;;;-142.25;100.00;58004.16;4958970;28;20047;-72
2022/12/17 16:23:43;;;;;;;31.83;15.93;;;;;;;-142.25;100.00;58004.16;4963672;28;20061;-69
2022/12/17 16:26:10;;;;;;;30.93;16.37;;;;;;;-142.25;100.00;58004.16;4961116;28;20054;-69
2022/12/17 16:28:36;;;;;;;31.80;16.70;;;;;;;-142.25;100.00;58004.16;4978729;28;20062;-71
2022/12/17 16:31:07;;;;;;;31.23;15.37;;;;;;;-142.25;100.00;58004.16;4965266;28;20133;-71
2022/12/17 16:33:36;;;;;;;29.33;16.87;;;;;;;-142.25;100.00;58004.16;4963422;28;20477;-69
2022/12/17 16:36:04;;;;;;;32.53;15.27;;;;;;;-142.25;100.00;58004.16;4963068;28;20096;-70
2022/12/17 16:38:30;;;;;;;34.20;16.53;;;;;;;-142.25;100.00;58004.16;4962492;28;20516;-70
2022/12/17 16:40:57;;;;;;;32.37;14.87;;;;;;;-142.25;100.00;58004.16;4965746;28;20069;-71
2022/12/17 16:43:24;;;;;;;34.27;17.67;;;;;;;-142.25;100.00;58004.16;4965702;28;20035;-70
2022/12/17 16:45:52;;;;;;;57.53;25.97;;;;;;;-142.25;100.00;58004.16;4959949;28;20123;-69
2022/12/17 16:48:19;;;;;;;33.13;17.80;;;;;;;-142.25;100.00;58004.16;4964618;28;20127;-68
2022/12/17 16:50:46;;;;;;;47.67;22.83;;;;;;;-142.25;100.00;58004.16;4963347;28;20062;-65
2022/12/17 16:53:12;;;;;;;37.07;17.87;;;;;;;-142.25;100.00;58004.16;4959857;28;20485;-73
2022/12/17 16:55:43;;;;;;;62.80;26.93;;;;;;;-142.25;100.00;58004.16;4962624;28;20382;-74
2022/12/17 16:58:10;;;;;;;38.47;17.50;;;;;;;-142.25;100.00;58004.16;4963064;28;20046;-64
2022/12/17 17:00:36;;;;;;;37.63;19.10;;;;;;;-142.25;100.00;58004.16;4974737;28;20057;-71
2022/12/17 17:03:03;;;;;;;34.80;16.40;;;;;;;-142.25;100.00;58004.16;4970954;28;20084;-73
2022/12/17 17:05:35;;;;;;;34.33;17.13;;;;;;;-142.25;100.00;58004.16;4969215;28;20414;-74
2022/12/17 17:08:01;;;;;;;35.17;17.47;;;;;;;-142.25;100.00;58004.16;4963795;28;20099;-74
2022/12/17 17:10:27;;;;;;;37.90;19.70;;;;;;;-142.25;100.00;58004.16;4984740;28;20207;-69
2022/12/17 17:12:53;;;;;;;35.00;19.27;;;;;;;-142.25;100.00;58004.16;4964409;28;20058;-67
2022/12/17 17:15:22;;;;;;;35.13;18.17;;;;;;;-142.25;100.00;58004.16;4968741;28;20510;-67
2022/12/17 17:17:48;;;;;;;34.87;17.90;;;;;;;-142.25;100.00;58004.16;4973200;28;20052;-68
2022/12/17 17:20:14;;;;;;;38.13;17.83;;;;;;;-142.25;100.00;58004.16;4979668;28;20039;-68
2022/12/17 17:22:40;;;;;;;40.63;18.90;;;;;;;-142.25;100.00;58004.16;4978003;28;20138;-68
2022/12/17 17:25:06;;;;;;;36.00;18.63;;;;;;;-142.25;100.00;58004.16;4977767;28;20126;-67
2022/12/17 17:27:31;;;;;;;35.83;19.27;;;;;;;-142.25;100.00;58004.16;4971324;28;20102;-67
2022/12/17 17:29:57;;;;;;;46.00;22.23;;;;;;;-142.25;100.00;58004.16;4971946;28;20053;-67
2022/12/17 17:32:24;;;;;;;39.80;18.03;;;;;;;-142.25;100.00;58004.16;4963083;28;20030;-64
2022/12/17 17:34:50;;;;;;;33.80;18.60;;;;;;;-142.25;100.00;58004.16;4945789;28;20100;-67
2022/12/17 17:37:16;;;;;;;38.10;20.37;;;;;;;-142.25;100.00;58004.16;4975204;28;20066;-64
2022/12/17 17:39:42;;;;;;;35.17;19.10;;;;;;;-142.25;100.00;58004.16;4960962;28;20043;-65
2022/12/17 17:42:08;;;;;;;39.07;18.67;;;;;;;-142.25;100.00;58004.16;4965350;28;20051;-66
2022/12/17 17:44:34;;;;;;;41.13;18.80;;;;;;;-142.25;100.00;58004.16;4967422;28;20632;-68
2022/12/17 17:47:00;;;;;;;42.43;19.47;;;;;;;-142.25;100.00;58004.16;4959780;28;20199;-66
2022/12/17 17:49:26;;;;;;;40.93;19.87;;;;;;;-142.25;100.00;58004.16;4959900;28;20051;-69
2022/12/17 17:51:51;;;;;;;40.90;20.27;;;;;;;-142.25;100.00;58004.16;4961487;28;20083;-66
2022/12/17 17:54:17;;;;;;;47.80;23.77;;;;;;;-142.25;100.00;58004.16;4964314;28;20043;-67
2022/12/17 17:56:43;;;;;;;37.00;19.83;;;;;;;-142.25;100.00;58004.16;4961118;28;20046;-67
2022/12/17 17:59:12;;;;;;;34.63;17.23;;;;;;;-142.25;100.00;58004.16;4948994;28;20107;-67
2022/12/17 18:01:43;;;;;;;49.07;24.57;;;;;;;-142.25;100.00;58004.16;4957810;28;20035;-65
2022/12/17 18:04:11;;;;;;;46.53;24.50;;;;;;;-142.25;100.00;58004.16;4963980;28;20553;-68
2022/12/17 18:06:39;;;;;;;40.63;20.93;;;;;;;-142.25;100.00;58004.16;4957457;28;20050;-67
2022/12/17 18:09:05;;;;;;;39.10;18.20;;;;;;;-142.25;100.00;58004.16;4958571;28;20171;-67
2022/12/17 18:11:33;;;;;;;42.90;21.10;;;;;;;-142.25;100.00;58004.16;4964813;28;20086;-67
2022/12/17 18:14:00;;;;;;;53.30;23.90;;;;;;;-142.25;100.00;58004.16;4959954;28;20072;-67
2022/12/17 18:16:34;;;;;;;43.00;20.33;;;;;;;-142.25;100.00;58004.16;4935505;28;20585;-69
2022/12/17 18:19:07;;;;;;;46.47;21.37;;;;;;;-142.25;100.00;58004.16;4963435;28;20046;-66
2022/12/17 18:21:33;;;;;;;51.47;24.23;;;;;;;-142.25;100.00;58004.16;4959268;28;20057;-67
2022/12/17 18:24:13;;;;;;;38.67;21.90;;;;;;;-142.25;100.00;58004.16;4959004;28;20366;-70
2022/12/17 18:26:41;;;;;;;43.57;21.10;;;;;;;-142.25;100.00;58004.16;4958501;28;20201;-62
2022/12/17 18:29:36;;;;;;;50.77;26.37;;;;;;;-142.25;100.00;58004.16;4960244;28;20137;-66
2022/12/17 18:32:01;;;;;;;41.07;20.27;;;;;;;-142.25;100.00;58004.16;4947343;28;20387;-64
2022/12/17 18:34:27;;;;;;;43.47;19.17;;;;;;;-142.25;100.00;58004.16;4958707;28;20034;-66
2022/12/17 18:36:53;;;;;;;37.53;16.80;;;;;;;-142.25;100.00;58004.16;4959269;28;20043;-72
2022/12/17 18:39:22;;;;;;;40.20;20.43;;;;;;;-142.25;100.00;58004.16;4959153;28;20034;-72
2022/12/17 18:44:36;;;;;;;28.42;15.82;;;;;;;-142.25;100.00;58004.16;4968374;28;20062;-73
2022/12/17 18:47:03;;;;;;;35.87;16.90;;;;;;;-142.25;100.00;58004.16;4968161;28;20494;-74
2022/12/17 18:49:28;;;;;;;33.40;16.43;;;;;;;-142.25;100.00;58004.16;4966438;28;20049;-74
2022/12/17 18:51:54;;;;;;;38.80;17.63;;;;;;;-142.25;100.00;58004.16;4963485;28;20042;-70
2022/12/17 18:54:26;;;;;;;40.33;18.47;;;;;;;-142.25;100.00;58004.16;4965608;28;20936;-75
2022/12/17 18:56:53;;;;;;;39.27;20.07;;;;;;;-142.25;100.00;58004.16;4972253;28;20133;-73
2022/12/17 18:59:21;;;;;;;38.57;18.73;;;;;;;-142.25;100.00;58004.16;4965513;28;20125;-73
2022/12/17 19:01:48;;;;;;;48.10;20.97;;;;;;;-142.25;100.00;58004.16;4964128;28;20034;-75
2022/12/17 19:04:19;;;;;;;48.80;23.20;;;;;;;-142.25;100.00;58004.16;4963280;28;20576;-71
2022/12/17 19:06:51;;;;;;;60.80;30.37;;;;;;;-142.25;100.00;58004.16;4964788;28;20064;-71
2022/12/17 19:09:26;;;;;;;48.53;25.07;;;;;;;-142.25;100.00;58004.16;4966090;28;20047;-71
2022/12/17 19:11:53;;;;;;;51.03;24.33;;;;;;;-142.25;100.00;58004.16;4961626;28;20140;-70
2022/12/17 19:14:23;;;;;;;53.17;24.67;;;;;;;-142.25;100.00;58004.16;4966171;28;20077;-72
2022/12/17 19:16:53;;;;;;;40.90;19.43;;;;;;;-142.25;100.00;58004.16;4965217;28;20545;-72
2022/12/17 19:19:20;;;;;;;52.33;24.43;;;;;;;-142.25;100.00;58004.16;4961316;28;20037;-73
2022/12/17 19:21:46;;;;;;;41.67;20.80;;;;;;;-142.25;100.00;58004.16;4965800;28;20176;-72
2022/12/17 19:24:15;;;;;;;41.10;20.83;;;;;;;-142.25;100.00;58004.16;4982359;28;20053;-70
2022/12/17 19:26:41;;;;;;;43.43;21.90;;;;;;;-142.25;100.00;58004.16;4968272;28;20047;-70
2022/12/17 19:29:09;;;;;;;42.93;19.77;;;;;;;-142.25;100.00;58004.16;4967547;28;20184;-71
2022/12/17 19:31:35;;;;;;;41.23;20.90;;;;;;;-142.25;100.00;58004.16;4967602;28;20308;-71
2022/12/17 19:34:04;;;;;;;37.73;21.07;;;;;;;-142.25;100.00;58004.16;4966158;28;20191;-71
2022/12/17 19:36:33;;;;;;;43.17;20.97;;;;;;;-142.25;100.00;58004.16;4967719;28;20039;-71
2022/12/17 19:39:01;;;;;;;44.90;22.07;;;;;;;-142.25;100.00;58004.16;4972871;28;20055;-70
2022/12/17 19:41:30;;;;;;;46.07;23.70;;;;;;;-142.25;100.00;58004.16;4965370;28;20042;-71
2022/12/17 19:44:02;;;;;;;39.50;20.73;;;;;;;-142.25;100.00;58004.16;4964663;28;20043;-73
2022/12/17 19:46:30;;;;;;;43.40;22.37;;;;;;;-142.25;100.00;58004.16;4963790;28;20034;-71
2022/12/17 19:48:57;;;;;;;45.47;22.77;;;;;;;-142.25;100.00;58004.16;4970649;28;20057;-71
2022/12/17 19:51:24;;;;;;;40.63;21.83;;;;;;;-142.25;100.00;58004.16;4969800;28;20338;-72
2022/12/17 19:53:51;;;;;;;40.63;21.07;;;;;;;-142.25;100.00;58004.16;4963789;28;20039;-71
2022/12/17 19:56:31;;;;;;;40.37;19.73;;;;;;;-142.25;100.00;58004.16;4963961;28;20050;-72
2022/12/17 19:59:01;;;;;;;42.53;21.73;;;;;;;-142.25;100.00;58004.16;4965866;28;20432;-71
2022/12/17 20:01:32;;;;;;;43.33;24.27;;;;;;;-142.25;100.00;58004.16;4962214;28;20156;-71
2022/12/17 20:03:59;;;;;;;49.40;25.37;;;;;;;-142.25;100.00;58004.16;4962028;28;20034;-72
2022/12/17 20:06:31;;;;;;;44.53;23.07;;;;;;;-142.25;100.00;58004.16;4968867;28;20062;-72
2022/12/17 20:08:58;;;;;;;40.93;21.97;;;;;;;-142.25;100.00;58004.16;4979257;28;20042;-72
2022/12/17 20:11:33;;;;;;;47.77;24.50;;;;;;;-142.25;100.00;58004.16;4965896;28;20059;-71
2022/12/17 20:13:59;;;;;;;44.88;23.45;;;;;;;-142.25;100.00;58004.16;4965604;28;20042;-72
2022/12/17 20:16:26;;;;;;;48.43;23.80;;;;;;;-142.25;100.00;58004.16;4963469;28;20042;-72
2022/12/17 20:18:52;;;;;;;46.77;25.60;;;;;;;-142.25;100.00;58004.16;4964633;28;20142;-72
2022/12/17 20:21:18;;;;;;;43.77;23.17;;;;;;;-142.25;100.00;58004.16;4946960;28;20094;-72
2022/12/17 20:23:49;;;;;;;44.27;22.40;;;;;;;-142.25;100.00;58004.16;4965842;28;20472;-74
2022/12/17 20:26:16;;;;;;;52.53;26.13;;;;;;;-142.25;100.00;58004.16;4965270;28;20221;-72
2022/12/17 20:28:43;;;;;;;42.47;22.97;;;;;;;-142.25;100.00;58004.16;4964032;28;20050;-73
2022/12/17 20:31:12;;;;;;;46.80;22.73;;;;;;;-142.25;100.00;58004.16;4968357;28;20470;-72
2022/12/17 20:33:38;;;;;;;46.40;23.57;;;;;;;-142.25;100.00;58004.16;4964717;28;20036;-72
2022/12/17 20:36:07;;;;;;;40.70;21.83;;;;;;;-142.25;100.00;58004.16;4964711;28;20043;-71
2022/12/17 20:38:33;;;;;;;47.07;23.43;;;;;;;-142.25;100.00;58004.16;4965592;28;20082;-72
2022/12/17 20:40:59;;;;;;;44.60;20.63;;;;;;;-142.25;100.00;58004.16;4963364;28;20044;-72
2022/12/17 20:43:26;;;;;;;37.57;19.63;;;;;;;-142.25;100.00;58004.16;4959346;28;20027;-72
2022/12/17 20:45:56;;;;;;;44.07;21.93;;;;;;;-142.25;100.00;58004.16;4959892;28;20138;-74
2022/12/17 20:48:22;;;;;;;38.10;20.03;;;;;;;-142.25;100.00;58004.16;4962480;28;20047;-72
2022/12/17 20:50:49;;;;;;;34.53;19.40;;;;;;;-142.25;100.00;58004.16;4960823;28;20038;-73
2022/12/17 20:53:16;;;;;;;41.17;21.53;;;;;;;-142.25;100.00;58004.16;4963869;28;20109;-72
2022/12/17 20:55:42;;;;;;;44.93;25.07;;;;;;;-142.25;100.00;58004.16;4964808;28;20046;-70
2022/12/17 20:58:07;;;;;;;49.00;25.03;;;;;;;-142.25;100.00;58004.16;4964477;28;20655;-73
2022/12/17 21:00:33;;;;;;;50.37;23.43;;;;;;;-142.25;100.00;58004.16;4964950;28;20078;-73
2022/12/17 21:02:59;;;;;;;55.87;27.50;;;;;;;-142.25;100.00;58004.16;4965044;28;20105;-72
2022/12/17 21:05:25;;;;;;;60.23;27.23;;;;;;;-142.25;100.00;58004.16;4965967;28;20137;-72
2022/12/17 21:07:51;;;;;;;51.70;25.23;;;;;;;-142.25;100.00;58004.16;4961382;28;20105;-71
2022/12/17 21:10:17;;;;;;;44.77;24.27;;;;;;;-142.25;100.00;58004.16;4965564;28;20137;-71
2022/12/17 21:15:27;;;;;;;36.28;19.83;;;;;;;-142.25;100.00;58004.16;4965948;28;20129;-72
2022/12/17 21:17:53;;;;;;;36.47;20.77;;;;;;;-142.25;100.00;58004.16;4963479;28;20039;-70
2022/12/17 21:20:19;;;;;;;34.20;17.63;;;;;;;-142.25;100.00;58004.16;4965082;28;20753;-72
2022/12/17 21:22:44;;;;;;;39.17;18.73;;;;;;;-142.25;100.00;58004.16;4967465;28;20122;-73
2022/12/17 21:25:10;;;;;;;37.83;18.67;;;;;;;-142.25;100.00;58004.16;4969778;28;20047;-72
2022/12/17 21:27:36;;;;;;;29.87;16.73;;;;;;;-142.25;100.00;58004.16;4968185;28;20101;-73
2022/12/17 21:30:03;;;;;;;31.13;15.87;;;;;;;-142.25;100.00;58004.16;4968514;28;20272;-72
2022/12/17 21:32:28;;;;;;;30.30;16.90;;;;;;;-142.25;100.00;58004.16;4964073;28;20039;-74
2022/12/17 21:34:54;;;;;;;32.23;15.77;;;;;;;-142.25;100.00;58004.16;4963670;28;20844;-73
2022/12/17 21:37:20;;;;;;;28.33;15.60;;;;;;;-142.25;100.00;58004.16;4962034;28;20421;-72
2022/12/17 21:39:45;;;;;;;23.73;13.23;;;;;;;-142.25;100.00;58004.16;4978653;28;20623;-73
2022/12/17 21:44:55;;;;;;;24.03;12.23;;;;;;;-142.25;100.00;58004.16;4963016;28;20102;-73
2022/12/17 21:47:21;;;;;;;26.73;12.97;;;;;;;-142.25;100.00;58004.16;4961825;28;20051;-73
2022/12/17 21:49:47;;;;;;;25.60;14.20;;;;;;;-142.25;100.00;58004.16;4964248;28;20047;-74
2022/12/17 21:52:13;;;;;;;23.50;12.90;;;;;;;-142.25;100.00;58004.16;4960802;28;20155;-73
2022/12/17 21:54:38;;;;;;;23.07;13.67;;;;;;;-142.25;100.00;58004.16;4956921;28;20110;-72
2022/12/17 21:57:04;;;;;;;26.63;14.33;;;;;;;-142.25;100.00;58004.16;4962109;28;20457;-73
2022/12/17 21:59:30;;;;;;;21.37;12.27;;;;;;;-142.25;100.00;58004.16;4960341;28;20471;-74
2022/12/17 22:01:55;;;;;;;24.23;13.27;;;;;;;-142.25;100.00;58004.16;4961335;28;20150;-75
2022/12/17 22:04:22;;;;;;;26.50;13.80;;;;;;;-142.25;100.00;58004.16;4963229;28;20046;-73
2022/12/17 22:06:48;;;;;;;21.90;11.93;;;;;;;-142.25;100.00;58004.16;4965041;28;20061;-73
2022/12/17 22:09:14;;;;;;;40.90;12.93;;;;;;;-142.25;100.00;58004.16;4964155;28;20101;-74
2022/12/17 22:11:40;;;;;;;19.20;11.53;;;;;;;-142.25;100.00;58004.16;4963130;28;20055;-71
2022/12/17 22:14:08;;;;;;;26.57;12.60;;;;;;;-142.25;100.00;58004.16;4960833;28;20054;-74
2022/12/17 22:16:45;;;;;;;23.37;12.17;;;;;;;-142.25;100.00;58004.16;4967642;28;20376;-73
2022/12/17 22:19:21;;;;;;;23.77;12.93;;;;;;;-142.25;100.00;58004.16;4966318;28;20047;-73
2022/12/17 22:21:47;;;;;;;27.20;13.43;;;;;;;-142.25;100.00;58004.16;4964837;28;20521;-72
2022/12/17 22:24:15;;;;;;;24.93;12.23;;;;;;;-142.25;100.00;58004.16;4962000;28;20149;-73
2022/12/17 22:26:41;;;;;;;24.13;10.83;;;;;;;-142.25;100.00;58004.16;4965977;28;20078;-73
2022/12/17 22:29:07;;;;;;;18.43;9.90;;;;;;;-142.25;100.00;58004.16;4955695;28;20116;-72
2022/12/17 22:34:17;;;;;;;24.53;12.13;;;;;;;-142.25;100.00;58004.16;4965811;28;20042;-72
2022/12/17 22:36:42;;;;;;;23.43;12.30;;;;;;;-142.25;100.00;58004.16;4968191;28;20043;-72
2022/12/17 22:39:13;;;;;;;19.37;10.50;;;;;;;-142.25;100.00;58004.16;4977019;28;20046;-74
2022/12/17 22:44:25;;;;;;;17.98;9.88;;;;;;;-142.25;100.00;58004.16;4967445;28;20050;-73
2022/12/17 22:46:51;;;;;;;23.20;10.83;;;;;;;-142.25;100.00;58004.16;4964940;28;20117;-72
2022/12/17 22:49:17;;;;;;;16.47;9.40;;;;;;;-142.25;100.00;58004.16;4961194;28;20050;-72
2022/12/17 22:51:44;;;;;;;21.40;10.63;;;;;;;-142.25;100.00;58004.16;4964776;28;20136;-71
2022/12/17 22:54:12;;;;;;;19.50;10.23;;;;;;;-142.25;100.00;58004.16;4969314;28;20053;-72
2022/12/17 22:56:40;;;;;;;21.23;10.10;;;;;;;-142.25;100.00;58004.16;4970583;28;20027;-72
2022/12/17 22:59:07;;;;;;;20.27;10.60;;;;;;;-142.25;100.00;58004.16;4966736;28;20054;-72
2022/12/17 23:01:33;;;;;;;21.90;11.93;;;;;;;-142.25;100.00;58004.16;4967403;28;20039;-71
2022/12/17 23:04:00;;;;;;;20.93;9.60;;;;;;;-142.25;100.00;58004.16;4966963;28;20047;-70
2022/12/17 23:06:27;;;;;;;19.07;10.10;;;;;;;-142.25;100.00;58004.16;4966924;28;20062;-73
2022/12/17 23:08:53;;;;;;;15.53;8.60;;;;;;;-142.25;100.00;58004.16;4978621;28;20050;-72
2022/12/17 23:11:23;;;;;;;18.47;10.27;;;;;;;-142.25;100.00;58004.16;4966089;28;20070;-72
2022/12/17 23:13:49;;;;;;;19.47;10.90;;;;;;;-142.25;100.00;58004.16;4967878;28;20047;-70
2022/12/17 23:16:15;;;;;;;22.90;11.20;;;;;;;-142.25;100.00;58004.16;4965467;28;20416;-72
2022/12/17 23:18:42;;;;;;;20.17;10.73;;;;;;;-142.25;100.00;58004.16;4964015;28;20053;-73
2022/12/17 23:21:11;;;;;;;18.33;10.50;;;;;;;-142.25;100.00;58004.16;4964114;28;20050;-70
2022/12/17 23:23:37;;;;;;;21.30;11.03;;;;;;;-142.25;100.00;58004.16;4964086;28;20359;-71
2022/12/17 23:26:08;;;;;;;20.10;9.93;;;;;;;-142.25;100.00;58004.16;4964438;28;20050;-74
2022/12/17 23:28:36;;;;;;;14.43;8.57;;;;;;;-142.25;100.00;58004.16;4963015;28;20121;-72
2022/12/17 23:31:09;;;;;;;18.47;10.43;;;;;;;-142.25;100.00;58004.16;4965250;28;20505;-72
2022/12/17 23:33:35;;;;;;;16.37;9.17;;;;;;;-142.25;100.00;58004.16;4962100;28;20081;-72
2022/12/17 23:36:06;;;;;;;20.80;11.33;;;;;;;-142.25;100.00;58004.16;4964522;28;20051;-72
2022/12/17 23:38:32;;;;;;;18.50;10.20;;;;;;;-142.25;100.00;58004.16;4965362;28;20062;-73
2022/12/17 23:41:15;;;;;;;19.87;9.40;;;;;;;-142.25;100.00;58004.16;4964157;28;20149;-74
2022/12/17 23:43:40;;;;;;;20.23;11.40;;;;;;;-142.25;100.00;58004.16;4960788;28;20612;-73
2022/12/17 23:46:07;;;;;;;20.33;10.07;;;;;;;-142.25;100.00;58004.16;4962253;28;20066;-74
2022/12/17 23:48:35;;;;;;;20.77;10.40;;;;;;;-142.25;100.00;58004.16;4963207;28;20521;-74
2022/12/17 23:51:01;;;;;;;18.10;10.53;;;;;;;-142.25;100.00;58004.16;4962131;28;20522;-73
2022/12/17 23:53:28;;;;;;;18.17;10.10;;;;;;;-142.25;100.00;58004.16;4970903;28;20039;-73
2022/12/17 23:55:54;;;;;;;22.10;12.83;;;;;;;-142.25;100.00;58004.16;4970007;28;20057;-74
2022/12/17 23:58:20;;;;;;;31.37;15.17;;;;;;;-142.25;100.00;58004.16;4962807;28;20048;-74
